createdAt,value
2022-08-07T05:52:20.066Z,92.70
2022-08-07T05:57:30.299Z,97.60
2022-08-07T06:00:07.203Z,97.10
2022-08-07T06:02:48.909Z,96.90
2022-08-07T06:05:28.088Z,96.60
2022-08-07T06:08:14.504Z,96.60
2022-08-07T06:10:46.406Z,95.90
2022-08-07T06:13:31.528Z,95.70
2022-08-07T06:16:10.041Z,95.40
2022-08-07T06:18:39.710Z,95.10
2022-08-07T06:22:16.874Z,94.50
2022-08-07T06:24:46.080Z,94.00
2022-08-07T06:26:53.852Z,93.60
2022-08-07T06:29:28.528Z,93.70
2022-08-07T06:31:57.606Z,93.60
2022-08-07T06:34:29.735Z,93.40
2022-08-07T06:37:02.708Z,93.30
2022-08-07T06:40:16.174Z,93.10
2022-08-07T06:42:32.997Z,92.80
2022-08-07T06:45:05.881Z,92.60
2022-08-07T06:47:57.412Z,92.40
2022-08-07T06:50:27.557Z,92.20
2022-08-07T06:53:04.347Z,91.80
2022-08-07T06:56:00.032Z,91.70
2022-08-07T06:58:27.439Z,91.50
2022-08-07T07:00:56.576Z,91.10
2022-08-07T07:03:40.106Z,90.80
2022-08-07T07:06:13.620Z,90.40
2022-08-07T07:08:53.669Z,90.40
2022-08-07T07:12:08.781Z,90.10
2022-08-07T07:14:13.953Z,90.10
2022-08-07T07:16:50.807Z,89.70
2022-08-07T07:19:55.177Z,89.40
2022-08-07T07:22:36.322Z,89.10
2022-08-07T07:26:31.017Z,88.90
2022-08-07T07:28:03.125Z,89.60
2022-08-07T07:30:38.299Z,89.90
2022-08-07T07:33:11.990Z,90.20
2022-08-07T07:36:03.851Z,90.30
2022-08-07T07:38:36.014Z,90.40
2022-08-07T07:41:09.239Z,90.50
2022-08-07T07:44:13.859Z,90.40
2022-08-07T07:46:36.913Z,90.00
2022-08-07T07:50:33.336Z,89.00
2022-08-07T07:52:12.982Z,88.30
2022-08-07T07:54:51.083Z,88.10
2022-08-07T07:57:43.563Z,87.30
2022-08-07T08:00:29.075Z,86.70
2022-08-07T08:03:06.716Z,85.60
2022-08-07T08:05:51.110Z,85.80
2022-08-07T08:08:35.777Z,85.40
2022-08-07T08:11:08.226Z,85.30
2022-08-07T08:13:54.504Z,85.20
2022-08-07T08:16:29.818Z,85.20
2022-08-07T08:19:00.254Z,81.90
2022-08-07T08:22:03.191Z,80.20
2022-08-07T08:25:04.486Z,79.10
2022-08-07T08:27:56.508Z,78.60
2022-08-07T08:30:30.349Z,77.90
2022-08-07T08:33:02.991Z,77.80
2022-08-07T08:35:39.456Z,77.70
2022-08-07T08:38:16.823Z,77.90
2022-08-07T08:40:50.341Z,78.30
2022-08-07T08:43:41.764Z,77.90
2022-08-07T08:46:20.331Z,77.50
2022-08-07T08:48:59.798Z,77.60
2022-08-07T08:52:12.370Z,77.70
2022-08-07T08:54:27.587Z,77.50
2022-08-07T08:57:02.217Z,77.90
2022-08-07T08:59:41.962Z,77.90
2022-08-07T09:02:35.282Z,77.00
2022-08-07T09:05:36.755Z,78.20
2022-08-07T09:08:28.200Z,77.90
2022-08-07T09:11:08.238Z,76.80
2022-08-07T09:13:42.002Z,77.10
2022-08-07T09:16:29.852Z,76.00
2022-08-07T09:19:53.099Z,76.50
2022-08-07T09:24:28.502Z,75.50
2022-08-07T09:25:24.429Z,75.00
2022-08-07T09:28:02.911Z,74.30
2022-08-07T09:30:54.592Z,74.20
2022-08-07T09:33:56.592Z,73.60
2022-08-07T09:36:43.048Z,73.10
2022-08-07T09:39:53.642Z,73.40
2022-08-07T09:42:33.003Z,72.30
2022-08-07T09:47:25.884Z,72.40
2022-08-07T09:48:12.242Z,73.40
2022-08-07T09:50:55.535Z,73.60
2022-08-07T09:53:40.630Z,72.40
2022-08-07T09:56:37.407Z,73.20
2022-08-07T09:59:35.688Z,73.50
2022-08-07T10:02:34.023Z,73.40
2022-08-07T10:05:58.923Z,72.50
2022-08-07T10:08:58.650Z,72.90
2022-08-07T10:12:01.427Z,72.70
2022-08-07T10:15:05.175Z,72.80
2022-08-07T10:18:01.087Z,72.30
2022-08-07T10:20:44.573Z,72.30
2022-08-07T10:24:05.476Z,72.50
2022-08-07T10:26:59.897Z,72.10
2022-08-07T10:29:51.820Z,71.70
2022-08-07T10:32:52.555Z,71.70
2022-08-07T10:35:55.567Z,72.00
2022-08-07T10:38:48.086Z,72.20
2022-08-07T10:41:51.261Z,73.20
2022-08-07T10:44:33.855Z,72.80
2022-08-07T10:47:17.932Z,71.10
2022-08-07T10:49:51.800Z,70.80
2022-08-07T10:52:31.825Z,70.60
2022-08-07T10:55:26.971Z,71.60
2022-08-07T10:58:11.234Z,71.80
2022-08-07T11:00:55.956Z,71.00
2022-08-07T11:03:37.283Z,70.20
2022-08-07T11:06:21.918Z,70.30
2022-08-07T11:09:00.814Z,70.80
2022-08-07T11:11:36.004Z,69.90
2022-08-07T11:14:44.286Z,70.20
2022-08-07T11:17:12.271Z,69.10
2022-08-07T11:19:50.040Z,69.20
2022-08-07T11:22:32.441Z,68.90
2022-08-07T11:25:12.629Z,69.10
2022-08-07T11:28:01.249Z,69.40
2022-08-07T11:30:43.447Z,69.30
2022-08-07T11:33:58.730Z,68.50
2022-08-07T11:36:30.868Z,68.30
2022-08-07T11:39:07.835Z,68.60
2022-08-07T11:42:02.036Z,67.80
2022-08-07T11:44:52.340Z,68.70
2022-08-07T11:47:56.586Z,71.40
2022-08-07T11:50:57.287Z,72.20
2022-08-07T11:53:36.215Z,73.10
2022-08-07T11:56:26.320Z,74.80
2022-08-07T11:59:22.223Z,74.80
2022-08-07T12:02:10.245Z,75.20
2022-08-07T12:05:03.282Z,74.90
2022-08-07T12:07:53.747Z,74.60
2022-08-07T12:10:41.662Z,75.30
2022-08-07T12:13:19.147Z,75.60
2022-08-07T12:16:09.170Z,75.40
2022-08-07T12:18:45.164Z,75.40
2022-08-07T12:21:55.884Z,75.40
2022-08-07T12:24:37.866Z,75.70
2022-08-07T12:27:15.996Z,75.30
2022-08-07T12:29:52.991Z,75.10
2022-08-07T12:32:32.709Z,75.90
2022-08-07T12:35:05.663Z,75.90
2022-08-07T12:38:09.486Z,75.90
2022-08-07T12:40:50.834Z,76.10
2022-08-07T12:44:01.505Z,77.10
2022-08-07T12:46:26.554Z,77.30
2022-08-07T12:49:39.479Z,77.60
2022-08-07T12:52:13.681Z,77.20
2022-08-07T12:54:55.037Z,76.50
2022-08-07T12:57:39.276Z,77.10
2022-08-07T13:00:32.671Z,76.30
2022-08-07T13:03:23.036Z,76.80
2022-08-07T13:06:22.018Z,76.30
2022-08-07T13:09:02.287Z,76.60
2022-08-07T13:12:03.397Z,77.10
2022-08-07T13:14:58.118Z,75.90
2022-08-07T13:17:46.934Z,75.60
2022-08-07T13:20:27.802Z,75.90
2022-08-07T13:24:01.275Z,76.80
2022-08-07T13:26:06.632Z,76.70
2022-08-07T13:28:47.136Z,76.70
2022-08-07T13:31:24.351Z,76.40
2022-08-07T13:34:33.059Z,76.00
2022-08-07T13:37:04.285Z,75.50
2022-08-07T13:40:36.761Z,76.30
2022-08-07T13:42:41.592Z,76.60
2022-08-07T13:46:20.839Z,77.20
2022-08-07T13:48:08.369Z,76.90
2022-08-07T13:50:44.463Z,77.50
2022-08-07T13:53:23.838Z,78.20
2022-08-07T13:55:56.822Z,78.10
2022-08-07T13:58:56.813Z,78.10
2022-08-07T14:01:28.631Z,78.30
2022-08-07T14:04:09.188Z,77.60
2022-08-07T14:06:42.091Z,78.00
2022-08-07T14:10:02.928Z,78.20
2022-08-07T14:12:13.747Z,78.10
2022-08-07T14:14:48.155Z,78.20
2022-08-07T14:18:12.964Z,78.80
2022-08-07T14:20:40.261Z,78.60
2022-08-07T14:23:09.122Z,78.30
2022-08-07T14:25:45.921Z,78.40
2022-08-07T14:28:20.356Z,78.00
2022-08-07T14:31:00.980Z,77.50
2022-08-07T14:33:44.179Z,77.70
2022-08-07T14:36:16.150Z,78.50
2022-08-07T14:38:50.433Z,79.20
2022-08-07T14:41:34.220Z,78.90
2022-08-07T14:44:15.898Z,79.10
2022-08-07T14:46:51.656Z,78.20
2022-08-07T14:49:57.265Z,78.40
2022-08-07T14:52:16.866Z,78.80
2022-08-07T14:54:46.175Z,78.40
2022-08-07T14:57:28.929Z,76.90
2022-08-07T15:00:20.622Z,76.10
2022-08-07T15:02:59.988Z,76.20
2022-08-07T15:05:30.337Z,76.30
2022-08-07T15:08:06.160Z,76.80
2022-08-07T15:10:58.652Z,76.70
2022-08-07T15:13:37.040Z,76.40
2022-08-07T15:16:10.989Z,76.60
2022-08-07T15:19:00.825Z,76.60
2022-08-07T15:25:15.013Z,76.40
2022-08-07T15:27:20.360Z,77.00
2022-08-07T15:30:04.747Z,77.50
2022-08-07T15:32:51.049Z,78.10
2022-08-07T15:36:02.430Z,78.00
2022-08-07T15:38:30.779Z,77.10
2022-08-07T15:42:42.162Z,76.50
2022-08-07T15:44:01.402Z,76.80
2022-08-07T15:46:45.889Z,76.50
2022-08-07T15:50:05.106Z,75.90
2022-08-07T15:52:21.670Z,75.70
2022-08-07T15:55:02.930Z,75.80
2022-08-07T15:57:47.569Z,76.30
2022-08-07T16:00:30.987Z,77.10
2022-08-07T16:03:05.702Z,76.80
2022-08-07T16:05:36.030Z,76.30
2022-08-07T16:08:31.704Z,75.20
2022-08-07T16:11:03.486Z,75.60
2022-08-07T16:14:03.096Z,75.70
2022-08-07T16:16:56.834Z,76.30
2022-08-07T16:20:10.511Z,77.50
2022-08-07T16:23:13.499Z,77.30
2022-08-07T16:26:09.131Z,77.20
2022-08-07T16:30:07.033Z,77.30
2022-08-07T16:31:58.608Z,76.50
2022-08-07T16:34:40.791Z,75.20
2022-08-07T16:38:07.172Z,74.90
2022-08-07T16:41:02.942Z,74.50
2022-08-07T16:44:46.967Z,71.70
2022-08-07T16:47:41.187Z,71.50
2022-08-07T16:50:38.815Z,71.50
2022-08-07T16:54:01.622Z,71.40
2022-08-07T16:56:23.166Z,70.50
2022-08-07T16:59:14.656Z,70.80
2022-08-07T17:02:02.950Z,71.00
2022-08-07T17:04:50.847Z,72.20
2022-08-07T17:07:52.046Z,72.60
2022-08-07T17:10:34.325Z,72.80
2022-08-07T17:13:38.871Z,72.80
2022-08-07T17:16:15.715Z,73.60
2022-08-07T17:19:00.633Z,73.60
2022-08-07T17:21:51.451Z,74.70
2022-08-07T17:24:47.617Z,75.20
2022-08-07T17:27:24.088Z,75.00
2022-08-07T17:30:14.322Z,75.10
2022-08-07T17:34:09.586Z,75.10
2022-08-07T17:36:14.129Z,75.30
2022-08-07T17:38:56.161Z,76.20
2022-08-07T17:42:03.550Z,76.10
2022-08-07T17:44:45.433Z,76.10
2022-08-07T17:47:38.404Z,78.00
2022-08-07T17:50:19.275Z,79.80
2022-08-07T17:52:59.612Z,78.80
2022-08-07T17:56:00.763Z,81.40
2022-08-07T17:58:31.504Z,81.70
2022-08-07T18:01:18.227Z,82.00
2022-08-07T18:04:07.636Z,81.90
2022-08-07T18:06:43.271Z,81.50
2022-08-07T18:09:48.415Z,82.20
2022-08-07T18:12:27.884Z,84.30
2022-08-07T18:15:01.531Z,85.30
2022-08-07T18:21:09.469Z,86.20
